sensor_id;sensor_type;location;lat;lon;timestamp;pressure;altitude;pressure_sealevel;temperature;humidity
33859;BME280;20156;47.486;12.074;2023-03-18T00:00:04;94302.28;;;5.17;100.00
33859;BME280;20156;47.486;12.074;2023-03-18T00:02:34;94150.03;;;5.31;100.00
33859;BME280;20156;47.486;12.074;2023-03-18T00:05:00;94162.72;;;5.33;100.00
33859;BME280;20156;47.486;12.074;2023-03-18T00:07:25;94241.28;;;4.82;100.00
33859;BME280;20156;47.486;12.074;2023-03-18T00:09:51;94265.56;;;4.60;100.00
33859;BME280;20156;47.486;12.074;2023-03-18T00:12:17;94231.56;;;4.84;100.00
33859;BME280;20156;47.486;12.074;2023-03-18T00:14:42;94227.03;;;4.87;100.00
33859;BME280;20156;47.486;12.074;2023-03-18T00:17:07;94238.84;;;4.68;100.00
33859;BME280;20156;47.486;12.074;2023-03-18T00:19:33;94244.50;;;4.50;100.00
33859;BME280;20156;47.486;12.074;2023-03-18T00:21:59;94234.38;;;4.48;100.00
33859;BME280;20156;47.486;12.074;2023-03-18T00:24:24;94221.69;;;4.40;100.00
33859;BME280;20156;47.486;12.074;2023-03-18T00:26:52;94188.28;;;4.53;100.00
33859;BME280;20156;47.486;12.074;2023-03-18T00:29:18;94151.91;;;4.76;100.00
33859;BME280;20156;47.486;12.074;2023-03-18T00:31:44;94118.06;;;4.93;100.00
33859;BME280;20156;47.486;12.074;2023-03-18T00:34:10;94126.53;;;4.73;100.00
33859;BME280;20156;47.486;12.074;2023-03-18T00:36:35;94134.66;;;4.70;100.00
33859;BME280;20156;47.486;12.074;2023-03-18T00:39:01;94127.94;;;4.76;100.00
33859;BME280;20156;47.486;12.074;2023-03-18T00:41:29;94137.03;;;4.72;100.00
33859;BME280;20156;47.486;12.074;2023-03-18T00:43:57;94139.00;;;4.70;100.00
33859;BME280;20156;47.486;12.074;2023-03-18T00:46:41;94120.44;;;4.88;100.00
33859;BME280;20156;47.486;12.074;2023-03-18T00:49:06;94112.91;;;4.93;100.00
33859;BME280;20156;47.486;12.074;2023-03-18T00:51:35;94101.84;;;5.05;100.00
33859;BME280;20156;47.486;12.074;2023-03-18T00:54:04;94146.50;;;4.58;100.00
33859;BME280;20156;47.486;12.074;2023-03-18T00:56:35;94113.31;;;4.90;100.00
33859;BME280;20156;47.486;12.074;2023-03-18T00:59:02;94131.91;;;4.78;100.00
33859;BME280;20156;47.486;12.074;2023-03-18T01:01:28;94146.34;;;4.73;100.00
33859;BME280;20156;47.486;12.074;2023-03-18T01:03:54;94143.19;;;4.84;100.00
33859;BME280;20156;47.486;12.074;2023-03-18T01:06:23;94147.59;;;4.90;100.00
33859;BME280;20156;47.486;12.074;2023-03-18T01:08:50;94195.19;;;4.53;100.00
33859;BME280;20156;47.486;12.074;2023-03-18T01:11:16;94193.38;;;4.47;100.00
33859;BME280;20156;47.486;12.074;2023-03-18T01:13:42;94185.72;;;4.60;100.00
33859;BME280;20156;47.486;12.074;2023-03-18T01:16:09;94156.28;;;4.82;100.00
33859;BME280;20156;47.486;12.074;2023-03-18T01:18:35;94156.84;;;4.78;100.00
33859;BME280;20156;47.486;12.074;2023-03-18T01:21:02;94155.28;;;4.77;100.00
33859;BME280;20156;47.486;12.074;2023-03-18T01:23:28;94151.72;;;4.78;100.00
33859;BME280;20156;47.486;12.074;2023-03-18T01:25:55;94143.63;;;4.88;100.00
33859;BME280;20156;47.486;12.074;2023-03-18T01:28:21;94152.06;;;4.68;100.00
33859;BME280;20156;47.486;12.074;2023-03-18T01:30:47;94160.75;;;4.54;100.00
33859;BME280;20156;47.486;12.074;2023-03-18T01:33:13;94145.31;;;4.61;100.00
33859;BME280;20156;47.486;12.074;2023-03-18T01:35:40;94132.22;;;4.56;100.00
33859;BME280;20156;47.486;12.074;2023-03-18T01:38:06;94102.75;;;4.71;100.00
33859;BME280;20156;47.486;12.074;2023-03-18T01:40:34;94114.56;;;4.52;100.00
33859;BME280;20156;47.486;12.074;2023-03-18T01:45:37;94155.41;;;4.14;100.00
33859;BME280;20156;47.486;12.074;2023-03-18T01:48:03;94152.22;;;4.12;100.00
33859;BME280;20156;47.486;12.074;2023-03-18T01:50:33;94114.88;;;4.23;100.00
33859;BME280;20156;47.486;12.074;2023-03-18T01:53:07;94096.09;;;4.36;100.00
33859;BME280;20156;47.486;12.074;2023-03-18T01:55:35;94077.13;;;4.37;100.00
33859;BME280;20156;47.486;12.074;2023-03-18T01:58:06;94066.44;;;4.46;100.00
33859;BME280;20156;47.486;12.074;2023-03-18T02:00:38;94064.25;;;4.43;100.00
33859;BME280;20156;47.486;12.074;2023-03-18T02:03:06;94098.44;;;4.24;100.00
33859;BME280;20156;47.486;12.074;2023-03-18T02:05:32;94095.47;;;4.20;100.00
33859;BME280;20156;47.486;12.074;2023-03-18T02:07:57;94082.41;;;4.29;100.00
33859;BME280;20156;47.486;12.074;2023-03-18T02:10:23;94078.88;;;4.36;100.00
33859;BME280;20156;47.486;12.074;2023-03-18T02:12:54;94092.31;;;4.25;100.00
33859;BME280;20156;47.486;12.074;2023-03-18T02:15:21;94088.16;;;4.24;100.00
33859;BME280;20156;47.486;12.074;2023-03-18T02:17:54;94073.91;;;4.28;100.00
33859;BME280;20156;47.486;12.074;2023-03-18T02:20:34;94036.34;;;4.47;100.00
33859;BME280;20156;47.486;12.074;2023-03-18T02:26:00;94100.28;;;3.96;100.00
33859;BME280;20156;47.486;12.074;2023-03-18T02:28:29;94063.56;;;4.15;100.00
33859;BME280;20156;47.486;12.074;2023-03-18T02:31:01;94047.59;;;4.33;100.00
33859;BME280;20156;47.486;12.074;2023-03-18T02:33:32;94051.78;;;4.40;100.00
33859;BME280;20156;47.486;12.074;2023-03-18T02:36:05;94050.63;;;4.56;100.00
33859;BME280;20156;47.486;12.074;2023-03-18T02:38:31;94121.69;;;4.03;100.00
33859;BME280;20156;47.486;12.074;2023-03-18T02:40:56;94146.59;;;3.68;100.00
33859;BME280;20156;47.486;12.074;2023-03-18T02:43:29;94103.44;;;3.91;100.00
33859;BME280;20156;47.486;12.074;2023-03-18T02:48:22;94039.41;;;4.09;100.00
33859;BME280;20156;47.486;12.074;2023-03-18T02:50:50;94023.63;;;4.26;100.00
33859;BME280;20156;47.486;12.074;2023-03-18T02:53:16;94039.81;;;4.13;100.00
33859;BME280;20156;47.486;12.074;2023-03-18T02:55:42;94030.34;;;4.20;100.00
33859;BME280;20156;47.486;12.074;2023-03-18T02:58:07;94062.56;;;4.09;100.00
33859;BME280;20156;47.486;12.074;2023-03-18T03:00:34;94076.00;;;4.05;100.00
33859;BME280;20156;47.486;12.074;2023-03-18T03:03:00;94083.13;;;4.09;100.00
33859;BME280;20156;47.486;12.074;2023-03-18T03:05:26;94079.59;;;4.17;100.00
33859;BME280;20156;47.486;12.074;2023-03-18T03:07:52;94086.38;;;4.25;100.00
33859;BME280;20156;47.486;12.074;2023-03-18T03:10:17;94081.44;;;4.36;100.00
33859;BME280;20156;47.486;12.074;2023-03-18T03:12:43;94076.94;;;4.51;100.00
33859;BME280;20156;47.486;12.074;2023-03-18T03:15:10;94141.53;;;4.09;100.00
33859;BME280;20156;47.486;12.074;2023-03-18T03:17:35;94168.25;;;3.80;100.00
33859;BME280;20156;47.486;12.074;2023-03-18T03:20:02;94148.19;;;3.97;100.00
33859;BME280;20156;47.486;12.074;2023-03-18T03:22:31;94128.47;;;4.10;100.00
33859;BME280;20156;47.486;12.074;2023-03-18T03:24:56;94136.16;;;4.04;100.00
33859;BME280;20156;47.486;12.074;2023-03-18T03:27:22;94171.19;;;3.77;100.00
33859;BME280;20156;47.486;12.074;2023-03-18T03:29:48;94162.59;;;3.91;100.00
33859;BME280;20156;47.486;12.074;2023-03-18T03:32:13;94163.78;;;3.88;100.00
33859;BME280;20156;47.486;12.074;2023-03-18T03:34:40;94154.91;;;3.98;100.00
33859;BME280;20156;47.486;12.074;2023-03-18T03:37:06;94160.59;;;3.86;100.00
33859;BME280;20156;47.486;12.074;2023-03-18T03:39:31;94177.09;;;3.71;100.00
33859;BME280;20156;47.486;12.074;2023-03-18T03:41:58;94146.63;;;4.02;100.00
33859;BME280;20156;47.486;12.074;2023-03-18T03:44:23;94132.03;;;4.09;100.00
33859;BME280;20156;47.486;12.074;2023-03-18T03:46:49;94131.06;;;4.17;100.00
33859;BME280;20156;47.486;12.074;2023-03-18T03:49:15;94141.03;;;4.27;100.00
33859;BME280;20156;47.486;12.074;2023-03-18T03:51:41;94163.72;;;4.16;100.00
33859;BME280;20156;47.486;12.074;2023-03-18T03:54:06;94174.88;;;4.23;100.00
33859;BME280;20156;47.486;12.074;2023-03-18T03:56:32;94200.00;;;4.21;100.00
33859;BME280;20156;47.486;12.074;2023-03-18T03:58:57;94223.00;;;4.30;100.00
33859;BME280;20156;47.486;12.074;2023-03-18T04:01:24;94267.44;;;3.89;100.00
33859;BME280;20156;47.486;12.074;2023-03-18T04:03:50;94250.84;;;3.91;100.00
33859;BME280;20156;47.486;12.074;2023-03-18T04:06:15;94244.34;;;3.96;100.00
33859;BME280;20156;47.486;12.074;2023-03-18T04:08:41;94231.22;;;4.18;100.00
33859;BME280;20156;47.486;12.074;2023-03-18T04:11:06;94220.91;;;4.12;100.00
33859;BME280;20156;47.486;12.074;2023-03-18T04:13:32;94216.56;;;4.12;100.00
33859;BME280;20156;47.486;12.074;2023-03-18T04:15:58;94231.38;;;4.10;100.00
33859;BME280;20156;47.486;12.074;2023-03-18T04:18:24;94230.69;;;4.23;100.00
33859;BME280;20156;47.486;12.074;2023-03-18T04:20:50;94255.53;;;4.09;100.00
33859;BME280;20156;47.486;12.074;2023-03-18T04:23:16;94287.81;;;3.69;100.00
33859;BME280;20156;47.486;12.074;2023-03-18T04:25:42;94259.00;;;3.74;100.00
33859;BME280;20156;47.486;12.074;2023-03-18T04:28:07;94251.50;;;3.72;100.00
33859;BME280;20156;47.486;12.074;2023-03-18T04:30:33;94227.34;;;3.73;100.00
33859;BME280;20156;47.486;12.074;2023-03-18T04:32:59;94200.19;;;3.92;100.00
33859;BME280;20156;47.486;12.074;2023-03-18T04:35:26;94189.13;;;3.91;100.00
33859;BME280;20156;47.486;12.074;2023-03-18T04:37:52;94174.75;;;4.04;100.00
33859;BME280;20156;47.486;12.074;2023-03-18T04:40:19;94192.13;;;4.02;100.00
33859;BME280;20156;47.486;12.074;2023-03-18T04:42:44;94196.66;;;4.00;100.00
33859;BME280;20156;47.486;12.074;2023-03-18T04:45:13;94233.75;;;3.56;100.00
33859;BME280;20156;47.486;12.074;2023-03-18T04:47:40;94222.72;;;3.62;100.00
33859;BME280;20156;47.486;12.074;2023-03-18T04:50:06;94217.72;;;3.54;100.00
33859;BME280;20156;47.486;12.074;2023-03-18T04:52:35;94185.63;;;3.71;100.00
33859;BME280;20156;47.486;12.074;2023-03-18T04:55:00;94142.03;;;3.98;100.00
33859;BME280;20156;47.486;12.074;2023-03-18T04:57:26;94154.22;;;3.82;100.00
33859;BME280;20156;47.486;12.074;2023-03-18T04:59:52;94195.03;;;3.64;100.00
33859;BME280;20156;47.486;12.074;2023-03-18T05:02:18;94191.25;;;3.60;100.00
33859;BME280;20156;47.486;12.074;2023-03-18T05:04:44;94186.41;;;3.50;100.00
33859;BME280;20156;47.486;12.074;2023-03-18T05:07:12;94178.34;;;3.53;100.00
33859;BME280;20156;47.486;12.074;2023-03-18T05:09:39;94154.13;;;3.69;100.00
33859;BME280;20156;47.486;12.074;2023-03-18T05:12:10;94133.09;;;3.87;100.00
33859;BME280;20156;47.486;12.074;2023-03-18T05:14:37;94139.28;;;3.99;100.00
33859;BME280;20156;47.486;12.074;2023-03-18T05:17:02;94159.25;;;3.97;100.00
33859;BME280;20156;47.486;12.074;2023-03-18T05:19:29;94192.19;;;3.80;100.00
33859;BME280;20156;47.486;12.074;2023-03-18T05:21:54;94206.53;;;3.68;100.00
33859;BME280;20156;47.486;12.074;2023-03-18T05:24:20;94203.13;;;3.61;100.00
33859;BME280;20156;47.486;12.074;2023-03-18T05:26:46;94186.81;;;3.75;100.00
33859;BME280;20156;47.486;12.074;2023-03-18T05:29:12;94167.94;;;3.89;100.00
33859;BME280;20156;47.486;12.074;2023-03-18T05:31:37;94161.13;;;4.10;100.00
33859;BME280;20156;47.486;12.074;2023-03-18T05:34:03;94167.25;;;4.09;100.00
33859;BME280;20156;47.486;12.074;2023-03-18T05:36:31;94174.22;;;4.15;100.00
33859;BME280;20156;47.486;12.074;2023-03-18T05:38:57;94165.78;;;4.28;100.00
33859;BME280;20156;47.486;12.074;2023-03-18T05:41:23;94148.03;;;4.52;100.00
33859;BME280;20156;47.486;12.074;2023-03-18T05:43:49;94136.41;;;4.63;100.00
33859;BME280;20156;47.486;12.074;2023-03-18T05:46:14;94156.94;;;4.43;100.00
33859;BME280;20156;47.486;12.074;2023-03-18T05:48:40;94160.28;;;4.37;100.00
33859;BME280;20156;47.486;12.074;2023-03-18T05:51:06;94127.28;;;4.54;100.00
33859;BME280;20156;47.486;12.074;2023-03-18T05:53:31;94166.56;;;4.28;100.00
33859;BME280;20156;47.486;12.074;2023-03-18T05:55:58;94181.41;;;4.26;100.00
33859;BME280;20156;47.486;12.074;2023-03-18T05:58:24;94175.53;;;4.39;100.00
33859;BME280;20156;47.486;12.074;2023-03-18T06:00:50;94181.66;;;4.38;100.00
33859;BME280;20156;47.486;12.074;2023-03-18T06:03:15;94179.13;;;4.51;100.00
33859;BME280;20156;47.486;12.074;2023-03-18T06:05:42;94182.16;;;4.61;100.00
33859;BME280;20156;47.486;12.074;2023-03-18T06:08:07;94200.41;;;4.66;100.00
33859;BME280;20156;47.486;12.074;2023-03-18T06:10:33;94219.03;;;4.68;100.00
33859;BME280;20156;47.486;12.074;2023-03-18T06:12:59;94224.59;;;4.72;100.00
33859;BME280;20156;47.486;12.074;2023-03-18T06:15:25;94229.72;;;4.65;100.00
33859;BME280;20156;47.486;12.074;2023-03-18T06:17:51;94229.13;;;4.70;100.00
33859;BME280;20156;47.486;12.074;2023-03-18T06:20:17;94220.25;;;4.72;100.00
33859;BME280;20156;47.486;12.074;2023-03-18T06:22:43;94225.22;;;4.80;100.00
33859;BME280;20156;47.486;12.074;2023-03-18T06:25:14;94222.50;;;4.89;100.00
33859;BME280;20156;47.486;12.074;2023-03-18T06:27:39;94230.81;;;4.91;100.00
33859;BME280;20156;47.486;12.074;2023-03-18T06:30:05;94227.31;;;5.05;100.00
33859;BME280;20156;47.486;12.074;2023-03-18T06:32:31;94236.84;;;5.18;100.00
33859;BME280;20156;47.486;12.074;2023-03-18T06:34:58;94251.13;;;5.20;100.00
33859;BME280;20156;47.486;12.074;2023-03-18T06:37:23;94265.00;;;5.19;100.00
33859;BME280;20156;47.486;12.074;2023-03-18T06:39:49;94258.50;;;5.23;100.00
33859;BME280;20156;47.486;12.074;2023-03-18T06:42:15;94257.69;;;5.29;100.00
33859;BME280;20156;47.486;12.074;2023-03-18T06:44:41;94248.81;;;5.45;100.00
33859;BME280;20156;47.486;12.074;2023-03-18T06:47:08;94270.03;;;5.54;100.00
33859;BME280;20156;47.486;12.074;2023-03-18T06:49:34;94276.63;;;5.56;100.00
33859;BME280;20156;47.486;12.074;2023-03-18T06:51:59;94277.22;;;5.65;100.00
33859;BME280;20156;47.486;12.074;2023-03-18T06:54:26;94293.72;;;5.77;100.00
33859;BME280;20156;47.486;12.074;2023-03-18T06:56:53;94313.75;;;5.82;100.00
33859;BME280;20156;47.486;12.074;2023-03-18T06:59:18;94332.47;;;5.97;100.00
33859;BME280;20156;47.486;12.074;2023-03-18T07:01:45;94375.19;;;6.13;100.00
33859;BME280;20156;47.486;12.074;2023-03-18T07:04:11;94398.66;;;6.38;100.00
33859;BME280;20156;47.486;12.074;2023-03-18T07:06:36;94433.84;;;6.45;100.00
33859;BME280;20156;47.486;12.074;2023-03-18T07:09:02;94432.25;;;6.51;100.00
33859;BME280;20156;47.486;12.074;2023-03-18T07:11:28;94437.03;;;6.47;100.00
33859;BME280;20156;47.486;12.074;2023-03-18T07:13:54;94420.94;;;6.52;100.00
33859;BME280;20156;47.486;12.074;2023-03-18T07:16:19;94430.88;;;6.61;100.00
33859;BME280;20156;47.486;12.074;2023-03-18T07:18:45;94440.00;;;6.71;100.00
33859;BME280;20156;47.486;12.074;2023-03-18T07:21:10;94474.22;;;6.86;100.00
33859;BME280;20156;47.486;12.074;2023-03-18T07:23:38;94496.28;;;7.02;100.00
33859;BME280;20156;47.486;12.074;2023-03-18T07:26:03;94523.75;;;7.03;100.00
33859;BME280;20156;47.486;12.074;2023-03-18T07:28:29;94560.75;;;7.16;100.00
33859;BME280;20156;47.486;12.074;2023-03-18T07:30:54;94621.06;;;7.23;100.00
33859;BME280;20156;47.486;12.074;2023-03-18T07:33:20;94688.13;;;7.25;100.00
33859;BME280;20156;47.486;12.074;2023-03-18T07:35:46;94715.66;;;7.59;100.00
33859;BME280;20156;47.486;12.074;2023-03-18T07:38:12;94794.28;;;7.58;100.00
33859;BME280;20156;47.486;12.074;2023-03-18T07:40:38;94797.31;;;7.81;100.00
33859;BME280;20156;47.486;12.074;2023-03-18T07:43:04;94797.91;;;7.83;100.00
33859;BME280;20156;47.486;12.074;2023-03-18T07:45:30;94813.28;;;7.98;100.00
33859;BME280;20156;47.486;12.074;2023-03-18T07:47:55;94848.13;;;7.89;100.00
33859;BME280;20156;47.486;12.074;2023-03-18T07:50:21;94887.16;;;7.88;100.00
33859;BME280;20156;47.486;12.074;2023-03-18T07:52:47;94878.31;;;8.23;100.00
33859;BME280;20156;47.486;12.074;2023-03-18T07:55:13;94884.53;;;8.55;100.00
33859;BME280;20156;47.486;12.074;2023-03-18T07:57:40;94905.25;;;8.55;100.00
33859;BME280;20156;47.486;12.074;2023-03-18T08:00:07;94902.09;;;8.66;100.00
33859;BME280;20156;47.486;12.074;2023-03-18T08:02:34;94925.25;;;8.81;100.00
33859;BME280;20156;47.486;12.074;2023-03-18T08:05:01;94929.41;;;8.89;100.00
33859;BME280;20156;47.486;12.074;2023-03-18T08:07:28;94953.41;;;8.91;100.00
33859;BME280;20156;47.486;12.074;2023-03-18T08:09:54;94983.50;;;8.85;100.00
33859;BME280;20156;47.486;12.074;2023-03-18T08:12:19;95018.00;;;8.86;100.00
33859;BME280;20156;47.486;12.074;2023-03-18T08:14:45;95018.59;;;8.81;100.00
33859;BME280;20156;47.486;12.074;2023-03-18T08:17:12;95010.25;;;8.92;100.00
33859;BME280;20156;47.486;12.074;2023-03-18T08:19:38;95032.19;;;8.90;100.00
33859;BME280;20156;47.486;12.074;2023-03-18T08:22:03;95065.38;;;9.08;100.00
33859;BME280;20156;47.486;12.074;2023-03-18T08:24:29;95080.16;;;9.33;100.00
33859;BME280;20156;47.486;12.074;2023-03-18T08:26:54;95104.53;;;9.65;100.00
33859;BME280;20156;47.486;12.074;2023-03-18T08:29:20;95120.13;;;9.99;100.00
33859;BME280;20156;47.486;12.074;2023-03-18T08:31:45;95227.66;;;10.04;100.00
33859;BME280;20156;47.486;12.074;2023-03-18T08:34:11;95257.06;;;10.18;100.00
33859;BME280;20156;47.486;12.074;2023-03-18T08:36:36;95263.91;;;10.26;100.00
33859;BME280;20156;47.486;12.074;2023-03-18T08:39:02;95264.69;;;10.39;100.00
33859;BME280;20156;47.486;12.074;2023-03-18T08:41:29;95280.91;;;10.41;100.00
33859;BME280;20156;47.486;12.074;2023-03-18T08:43:55;95271.06;;;10.57;100.00
33859;BME280;20156;47.486;12.074;2023-03-18T08:46:22;95284.91;;;10.64;100.00
33859;BME280;20156;47.486;12.074;2023-03-18T08:48:47;95294.09;;;10.66;100.00
33859;BME280;20156;47.486;12.074;2023-03-18T08:51:14;95297.88;;;10.70;100.00
33859;BME280;20156;47.486;12.074;2023-03-18T08:53:41;95289.88;;;10.65;100.00
33859;BME280;20156;47.486;12.074;2023-03-18T08:56:06;95292.66;;;10.90;100.00
33859;BME280;20156;47.486;12.074;2023-03-18T08:58:32;95287.72;;;11.47;100.00
33859;BME280;20156;47.486;12.074;2023-03-18T09:00:58;95292.88;;;11.53;100.00
33859;BME280;20156;47.486;12.074;2023-03-18T09:03:24;95303.94;;;11.49;100.00
33859;BME280;20156;47.486;12.074;2023-03-18T09:05:50;95306.16;;;11.45;100.00
33859;BME280;20156;47.486;12.074;2023-03-18T09:08:20;95299.38;;;11.31;100.00
33859;BME280;20156;47.486;12.074;2023-03-18T09:10:46;95295.53;;;11.47;100.00
33859;BME280;20156;47.486;12.074;2023-03-18T09:13:12;95283.88;;;11.49;100.00
33859;BME280;20156;47.486;12.074;2023-03-18T09:15:38;95284.16;;;11.72;100.00
33859;BME280;20156;47.486;12.074;2023-03-18T09:18:04;95274.75;;;11.78;100.00
33859;BME280;20156;47.486;12.074;2023-03-18T09:20:29;95283.69;;;12.27;100.00
33859;BME280;20156;47.486;12.074;2023-03-18T09:22:57;95275.13;;;12.45;100.00
33859;BME280;20156;47.486;12.074;2023-03-18T09:25:23;95264.81;;;12.75;100.00
33859;BME280;20156;47.486;12.074;2023-03-18T09:27:49;95236.69;;;12.33;100.00
33859;BME280;20156;47.486;12.074;2023-03-18T09:30:14;95240.91;;;12.78;100.00
33859;BME280;20156;47.486;12.074;2023-03-18T09:32:40;95237.44;;;13.02;100.00
33859;BME280;20156;47.486;12.074;2023-03-18T09:35:06;95210.16;;;13.16;100.00
33859;BME280;20156;47.486;12.074;2023-03-18T09:37:34;95179.41;;;13.00;100.00
33859;BME280;20156;47.486;12.074;2023-03-18T09:39:59;95161.28;;;12.69;100.00
33859;BME280;20156;47.486;12.074;2023-03-18T09:54:04;95032.28;;;13.71;100.00
33859;BME280;20156;47.486;12.074;2023-03-18T09:56:34;95061.06;;;13.83;100.00
33859;BME280;20156;47.486;12.074;2023-03-18T10:01:28;95097.66;;;14.41;100.00
33859;BME280;20156;47.486;12.074;2023-03-18T10:04:10;95075.22;;;14.69;100.00
33859;BME280;20156;47.486;12.074;2023-03-18T10:06:40;95058.94;;;14.79;100.00
33859;BME280;20156;47.486;12.074;2023-03-18T10:09:18;95047.56;;;13.98;100.00
33859;BME280;20156;47.486;12.074;2023-03-18T10:11:47;95012.09;;;14.54;100.00
33859;BME280;20156;47.486;12.074;2023-03-18T10:14:29;94977.91;;;14.60;100.00
33859;BME280;20156;47.486;12.074;2023-03-18T10:25:34;95052.06;;;14.26;100.00
33859;BME280;20156;47.486;12.074;2023-03-18T10:36:18;94895.81;;;14.66;100.00
33859;BME280;20156;47.486;12.074;2023-03-18T10:38:52;94847.13;;;14.82;100.00
33859;BME280;20156;47.486;12.074;2023-03-18T10:41:22;94808.19;;;14.91;100.00
33859;BME280;20156;47.486;12.074;2023-03-18T10:43:52;94764.38;;;15.03;100.00
33859;BME280;20156;47.486;12.074;2023-03-18T10:46:20;94744.03;;;15.54;100.00
33859;BME280;20156;47.486;12.074;2023-03-18T10:48:54;94691.13;;;15.84;100.00
33859;BME280;20156;47.486;12.074;2023-03-18T10:51:45;94727.97;;;16.26;100.00
33859;BME280;20156;47.486;12.074;2023-03-18T10:56:45;94715.84;;;16.20;100.00
33859;BME280;20156;47.486;12.074;2023-03-18T10:59:16;94739.06;;;16.33;100.00
33859;BME280;20156;47.486;12.074;2023-03-18T11:01:47;94679.31;;;15.81;100.00
33859;BME280;20156;47.486;12.074;2023-03-18T11:04:15;94718.50;;;16.25;100.00
33859;BME280;20156;47.486;12.074;2023-03-18T11:06:47;94678.78;;;16.48;100.00
33859;BME280;20156;47.486;12.074;2023-03-18T11:09:19;94708.63;;;16.37;100.00
33859;BME280;20156;47.486;12.074;2023-03-18T11:11:48;94661.94;;;16.44;100.00
33859;BME280;20156;47.486;12.074;2023-03-18T11:14:18;94659.91;;;16.57;100.00
33859;BME280;20156;47.486;12.074;2023-03-18T11:16:59;94747.75;;;16.71;100.00
33859;BME280;20156;47.486;12.074;2023-03-18T11:19:30;94721.97;;;17.10;100.00
33859;BME280;20156;47.486;12.074;2023-03-18T11:24:39;94599.81;;;17.43;100.00
33859;BME280;20156;47.486;12.074;2023-03-18T11:27:28;94563.41;;;16.89;100.00
33859;BME280;20156;47.486;12.074;2023-03-18T11:29:59;94576.06;;;17.02;100.00
33859;BME280;20156;47.486;12.074;2023-03-18T11:32:27;94584.53;;;16.57;100.00
33859;BME280;20156;47.486;12.074;2023-03-18T11:34:59;94543.25;;;17.35;100.00
33859;BME280;20156;47.486;12.074;2023-03-18T11:37:39;94520.13;;;17.58;100.00
33859;BME280;20156;47.486;12.074;2023-03-18T11:40:25;94457.50;;;16.94;100.00
33859;BME280;20156;47.486;12.074;2023-03-18T11:43:03;94476.47;;;17.31;100.00
33859;BME280;20156;47.486;12.074;2023-03-18T11:45:55;94463.31;;;17.11;100.00
33859;BME280;20156;47.486;12.074;2023-03-18T11:56:40;94393.94;;;18.17;100.00
33859;BME280;20156;47.486;12.074;2023-03-18T12:15:45;94302.13;;;17.41;100.00
33859;BME280;20156;47.486;12.074;2023-03-18T12:27:19;94193.47;;;18.29;100.00
33859;BME280;20156;47.486;12.074;2023-03-18T12:46:31;94071.97;;;19.82;100.00
33859;BME280;20156;47.486;12.074;2023-03-18T12:49:09;94064.94;;;19.92;100.00
33859;BME280;20156;47.486;12.074;2023-03-18T12:51:49;94075.34;;;19.69;100.00
33859;BME280;20156;47.486;12.074;2023-03-18T12:54:25;94036.25;;;19.52;100.00
33859;BME280;20156;47.486;12.074;2023-03-18T12:56:58;94065.56;;;20.02;100.00
33859;BME280;20156;47.486;12.074;2023-03-18T12:59:32;94064.44;;;20.36;100.00
33859;BME280;20156;47.486;12.074;2023-03-18T13:02:19;94154.88;;;20.14;100.00
33859;BME280;20156;47.486;12.074;2023-03-18T13:04:56;94182.56;;;19.65;100.00
33859;BME280;20156;47.486;12.074;2023-03-18T13:10:22;94208.94;;;19.65;100.00
33859;BME280;20156;47.486;12.074;2023-03-18T13:12:50;94253.16;;;20.30;100.00
33859;BME280;20156;47.486;12.074;2023-03-18T13:15:49;94383.94;;;20.08;100.00
33859;BME280;20156;47.486;12.074;2023-03-18T13:18:55;94441.44;;;20.17;100.00
33859;BME280;20156;47.486;12.074;2023-03-18T13:21:18;94527.63;;;20.36;100.00
33859;BME280;20156;47.486;12.074;2023-03-18T13:29:37;94736.06;;;19.55;100.00
33859;BME280;20156;47.486;12.074;2023-03-18T13:35:20;94771.69;;;19.57;100.00
33859;BME280;20156;47.486;12.074;2023-03-18T13:43:26;94795.50;;;19.21;100.00
33859;BME280;20156;47.486;12.074;2023-03-18T13:45:53;94791.97;;;19.67;98.82
33859;BME280;20156;47.486;12.074;2023-03-18T13:48:29;94787.75;;;19.61;96.25
33859;BME280;20156;47.486;12.074;2023-03-18T13:50:57;94791.97;;;19.67;100.00
33859;BME280;20156;47.486;12.074;2023-03-18T13:53:38;94793.69;;;19.92;98.36
33859;BME280;20156;47.486;12.074;2023-03-18T13:56:05;94801.28;;;19.29;100.00
33859;BME280;20156;47.486;12.074;2023-03-18T13:58:49;94778.84;;;19.36;100.00
33859;BME280;20156;47.486;12.074;2023-03-18T14:01:34;94780.44;;;19.27;100.00
33859;BME280;20156;47.486;12.074;2023-03-18T14:09:32;94774.41;;;19.21;100.00
33859;BME280;20156;47.486;12.074;2023-03-18T14:17:20;94773.00;;;19.44;100.00
33859;BME280;20156;47.486;12.074;2023-03-18T14:19:47;94762.50;;;19.29;100.00
33859;BME280;20156;47.486;12.074;2023-03-18T14:22:19;94766.66;;;19.66;100.00
33859;BME280;20156;47.486;12.074;2023-03-18T14:24:46;94767.81;;;19.99;100.00
33859;BME280;20156;47.486;12.074;2023-03-18T14:27:52;94767.84;;;19.89;100.00
33859;BME280;20156;47.486;12.074;2023-03-18T14:35:52;94750.19;;;19.84;100.00
33859;BME280;20156;47.486;12.074;2023-03-18T14:38:23;94745.84;;;20.03;100.00
33859;BME280;20156;47.486;12.074;2023-03-18T14:40:54;94726.72;;;20.56;100.00
33859;BME280;20156;47.486;12.074;2023-03-18T14:43:31;94728.25;;;20.62;100.00
33859;BME280;20156;47.486;12.074;2023-03-18T14:46:02;94730.41;;;20.21;100.00
33859;BME280;20156;47.486;12.074;2023-03-18T14:48:30;94744.41;;;19.77;100.00
33859;BME280;20156;47.486;12.074;2023-03-18T14:50:57;94737.63;;;19.66;100.00
33859;BME280;20156;47.486;12.074;2023-03-18T14:53:34;94719.19;;;20.00;100.00
33859;BME280;20156;47.486;12.074;2023-03-18T14:56:02;94709.19;;;20.31;100.00
33859;BME280;20156;47.486;12.074;2023-03-18T14:58:28;94695.09;;;20.40;100.00
33859;BME280;20156;47.486;12.074;2023-03-18T15:01:00;94700.47;;;20.30;100.00